Time;durP1;ratioP1;P1;durP2;ratioP2;P2;SDS_P1;SDS_P2;PMS_P1;PMS_P2;Temp;Humidity;BMP_temperature;BMP_pressure;BME280_temperature;BME280_humidity;BME280_pressure;Samples;Min_cycle;Max_cycle;Signal;HPM_P1;HPM_P2
2022/01/11 00:03:35;;;;;;;108.40;35.22;;;;;;;-1.85;94.37;102892.16;10374696;28;20030;-77
2022/01/11 00:08:39;;;;;;;61.10;27.02;;;;;;;-1.89;94.10;102901.84;10376198;28;20477;-77
2022/01/11 00:13:40;;;;;;;80.57;33.63;;;;;;;-1.99;93.84;102897.13;10357464;28;20441;-77
2022/01/11 00:18:41;;;;;;;95.13;31.52;;;;;;;-2.07;94.54;102899.63;10343043;28;20034;-78
2022/01/11 00:28:42;;;;;;;77.55;31.60;;;;;;;-2.06;94.47;102905.69;10373286;28;20121;-77
2022/01/11 00:33:45;;;;;;;59.85;29.67;;;;;;;-2.06;93.93;102918.53;10373431;28;20068;-77
2022/01/11 00:38:46;;;;;;;88.22;33.38;;;;;;;-2.11;94.20;102914.44;10374212;28;20053;-77
2022/01/11 00:43:46;;;;;;;106.53;33.47;;;;;;;-2.18;93.80;102916.91;10375002;28;20066;-77
2022/01/11 00:48:47;;;;;;;94.70;34.67;;;;;;;-2.18;94.00;102920.38;10375362;28;20522;-77
2022/01/11 00:53:47;;;;;;;67.88;29.63;;;;;;;-2.22;94.53;102924.22;10372466;28;20077;-78
2022/01/11 00:58:48;;;;;;;98.32;28.15;;;;;;;-2.29;94.45;102920.63;10374685;28;20030;-78
2022/01/11 01:03:48;;;;;;;85.13;32.08;;;;;;;-2.33;94.00;102926.06;10371904;28;20524;-77
2022/01/11 01:08:49;;;;;;;77.03;28.33;;;;;;;-2.34;94.22;102911.38;10339653;28;20079;-78
2022/01/11 01:13:49;;;;;;;88.37;33.93;;;;;;;-2.41;94.08;102918.28;10372415;28;20116;-77
2022/01/11 01:18:50;;;;;;;94.50;31.02;;;;;;;-2.47;94.21;102921.69;10372238;28;20073;-77
2022/01/11 01:23:50;;;;;;;60.00;26.98;;;;;;;-2.49;nan;102930.81;10313585;28;20038;-76
2022/01/11 01:28:52;;;;;;;65.45;28.20;;;;;;;-2.49;94.24;102943.63;10330971;28;20548;-77
2022/01/11 01:33:53;;;;;;;81.85;33.25;;;;;;;-2.51;94.32;102953.66;10341921;28;20069;-77
2022/01/11 01:38:53;;;;;;;65.17;31.73;;;;;;;-2.51;94.39;102971.63;10354604;28;20068;-77
2022/01/11 01:43:55;;;;;;;84.75;32.50;;;;;;;-2.45;94.03;102972.44;10371770;28;20107;-77
2022/01/11 01:48:59;;;;;;;;;;;;;;;-2.49;94.03;102969.28;10373727;28;20062;-77
2022/01/11 01:53:59;;;;;;;55.17;30.75;;;;;;;-2.46;94.10;102979.94;10372428;28;19914;-77
2022/01/11 01:59:00;;;;;;;52.97;31.43;;;;;;;-2.46;94.37;102977.38;10370747;28;20053;-77
2022/01/11 02:04:00;;;;;;;52.28;28.10;;;;;;;-2.41;94.53;102977.25;10370134;28;20026;-77
2022/01/11 02:09:01;;;;;;;66.47;34.27;;;;;;;-2.38;94.08;102987.94;10368685;28;20053;-77
2022/01/11 02:14:01;;;;;;;81.80;35.37;;;;;;;-2.35;94.94;102982.31;10337995;28;20117;-77
2022/01/11 02:19:02;;;;;;;119.67;43.67;;;;;;;-2.44;94.15;102984.53;10369711;28;20058;-77
2022/01/11 02:24:03;;;;;;;61.08;32.03;;;;;;;-2.44;94.65;102979.41;10369237;28;20417;-77
2022/01/11 02:29:03;;;;;;;89.97;39.47;;;;;;;-2.41;94.32;102987.53;10353937;28;20038;-77
2022/01/11 02:34:04;;;;;;;70.90;37.17;;;;;;;-2.51;94.11;102989.56;10369190;28;20108;-77
2022/01/11 02:39:04;;;;;;;87.85;41.05;;;;;;;-2.56;94.00;102981.28;10370821;28;20503;-77
2022/01/11 02:44:05;;;;;;;64.40;33.73;;;;;;;-2.47;94.16;102980.66;10373715;28;20029;-77
2022/01/11 02:49:05;;;;;;;92.07;41.38;;;;;;;-2.52;93.99;102987.72;10377446;28;20038;-77
2022/01/11 02:54:06;;;;;;;230.60;54.35;;;;;;;-2.56;94.32;102988.97;10338514;28;20125;-78
2022/01/11 02:59:06;;;;;;;163.52;40.65;;;;;;;-2.64;93.82;102993.75;10352701;28;20529;-77
2022/01/11 03:04:07;;;;;;;88.00;35.55;;;;;;;-2.73;93.92;102993.47;10348156;28;20384;-77
2022/01/11 03:09:07;;;;;;;106.17;33.50;;;;;;;-2.86;94.03;103003.69;10376968;28;20030;-77
2022/01/11 03:14:08;;;;;;;176.50;43.00;;;;;;;-2.93;93.90;103016.38;10373165;28;20024;-77
2022/01/11 03:19:08;;;;;;;103.23;27.47;;;;;;;-2.97;94.43;103021.06;10376955;28;20120;-77
2022/01/11 03:24:09;;;;;;;138.45;38.00;;;;;;;-2.99;94.27;103019.94;10377236;28;20053;-77
2022/01/11 03:29:09;;;;;;;69.40;31.37;;;;;;;-3.03;93.70;103017.69;10375944;28;20112;-77
2022/01/11 03:34:12;;;;;;;156.10;36.80;;;;;;;-3.05;94.23;103015.63;10360916;28;20065;-77
2022/01/11 03:39:12;;;;;;;73.63;30.95;;;;;;;-3.10;94.30;103015.94;10358935;28;20050;-77
2022/01/11 03:44:13;;;;;;;119.30;41.10;;;;;;;-3.12;93.64;103013.84;10376245;28;20599;-76
2022/01/11 03:49:13;;;;;;;61.95;34.17;;;;;;;-3.10;94.13;103025.25;10374876;28;20057;-76
2022/01/11 03:54:16;;;;;;;120.43;55.90;;;;;;;-3.24;93.20;103023.34;10375538;28;20092;-76
2022/01/11 03:59:17;;;;;;;134.57;45.40;;;;;;;-3.40;93.43;103021.25;10358037;28;20476;-77
2022/01/11 04:04:17;;;;;;;191.73;46.67;;;;;;;-3.40;94.10;103033.09;10357843;28;20077;-77
2022/01/11 04:09:19;;;;;;;74.83;35.07;;;;;;;-3.43;93.85;103032.69;10342494;28;20072;-76
2022/01/11 04:14:20;;;;;;;128.93;41.00;;;;;;;-3.37;94.02;103033.53;10373753;28;20030;-76
2022/01/11 04:19:20;;;;;;;81.33;38.10;;;;;;;-3.41;93.67;103028.69;10375352;28;20034;-76
2022/01/11 04:24:21;;;;;;;76.70;37.53;;;;;;;-3.45;93.90;103031.53;10373385;28;20541;-76
2022/01/11 04:29:21;;;;;;;58.67;34.33;;;;;;;-3.47;93.53;103038.09;10357696;28;20572;-76
2022/01/11 04:34:22;;;;;;;62.33;34.63;;;;;;;-3.50;93.32;103038.59;10372867;28;20076;-76
2022/01/11 04:39:23;;;;;;;89.70;36.70;;;;;;;-3.55;93.93;103032.81;10372923;28;20077;-77
2022/01/11 04:44:23;;;;;;;115.53;36.87;;;;;;;-3.56;93.49;103042.88;10334138;28;20118;-76
2022/01/11 04:49:23;;;;;;;54.80;31.80;;;;;;;-3.60;94.03;103032.91;10333770;28;20529;-76
2022/01/11 04:54:24;;;;;;;68.60;33.57;;;;;;;-3.64;93.52;103044.34;10360616;28;20033;-76
2022/01/11 04:59:27;;;;;;;61.60;34.13;;;;;;;-3.59;93.59;103024.53;10372685;28;20030;-76
2022/01/11 05:04:27;;;;;;;69.38;38.60;;;;;;;-3.60;93.75;103038.94;10356509;28;20037;-76
2022/01/11 05:09:28;;;;;;;90.87;48.07;;;;;;;-3.58;93.67;103026.38;10372749;28;20026;-77
2022/01/11 05:14:28;;;;;;;100.63;50.13;;;;;;;-3.60;93.76;103035.47;10371270;28;20466;-76
2022/01/11 05:19:29;;;;;;;104.90;54.83;;;;;;;-3.57;93.93;103038.47;10373763;28;20073;-76
2022/01/11 05:24:29;;;;;;;139.47;70.93;;;;;;;-3.58;93.74;103029.84;10372269;28;20049;-76
2022/01/11 05:29:31;;;;;;;162.77;82.70;;;;;;;-3.62;93.75;103039.47;10372437;28;20068;-76
2022/01/11 05:34:31;;;;;;;199.85;97.13;;;;;;;-3.63;93.89;103035.97;10372119;28;20038;-76
2022/01/11 05:39:32;;;;;;;170.33;93.30;;;;;;;-3.64;93.43;103034.09;10372980;28;20078;-76
2022/01/11 05:44:33;;;;;;;223.30;112.93;;;;;;;-3.73;93.80;103038.88;10369255;28;20103;-76
2022/01/11 05:49:34;;;;;;;239.48;121.63;;;;;;;-3.76;93.27;103046.13;10372335;28;20026;-76
2022/01/11 05:54:35;;;;;;;182.37;83.20;;;;;;;-3.73;93.34;103044.00;10337151;28;20477;-76
2022/01/11 05:59:35;;;;;;;240.60;120.67;;;;;;;-3.76;93.33;103051.25;10347345;28;20053;-77
2022/01/11 06:04:36;;;;;;;246.90;127.43;;;;;;;-3.71;93.90;103050.25;10335502;28;20145;-76
2022/01/11 06:09:36;;;;;;;222.00;116.40;;;;;;;-3.73;93.80;103056.81;10370018;28;20025;-76
2022/01/11 06:14:37;;;;;;;174.10;76.60;;;;;;;-3.67;93.71;103055.81;10352661;28;20054;-75
2022/01/11 06:19:37;;;;;;;140.70;64.37;;;;;;;-3.77;93.74;103058.69;10371407;28;20034;-75
2022/01/11 06:24:38;;;;;;;127.13;71.73;;;;;;;-3.95;93.20;103064.72;10359132;28;20489;-76
2022/01/11 06:29:38;;;;;;;114.43;62.17;;;;;;;-4.04;93.27;103069.44;10375015;28;20077;-76
2022/01/11 06:34:39;;;;;;;120.77;50.33;;;;;;;-3.97;93.76;103067.06;10363070;28;20367;-76
2022/01/11 06:39:39;;;;;;;116.03;47.93;;;;;;;-3.90;93.80;103067.22;10358052;28;20133;-76
2022/01/11 06:44:42;;;;;;;101.77;48.70;;;;;;;-3.88;93.53;103088.81;10343489;28;20034;-76
2022/01/11 06:49:42;;;;;;;;;;;;;;;-3.92;93.95;103088.19;10376218;28;20401;-76
2022/01/11 06:54:42;;;;;;;140.63;43.03;;;;;;;-3.94;93.54;103097.28;10357021;28;19923;-77
2022/01/11 06:59:43;;;;;;;168.43;47.67;;;;;;;-3.97;93.61;103115.66;10355785;28;20040;-76
2022/01/11 07:04:43;;;;;;;199.77;48.10;;;;;;;-3.97;93.68;103113.09;10344099;28;20109;-77
2022/01/11 07:09:54;;;;;;;98.87;40.60;;;;;;;-3.90;93.81;103110.72;10354889;28;20042;-75
2022/01/11 07:14:55;;;;;;;121.13;48.90;;;;;;;-3.88;93.88;103113.50;10372653;28;20034;-75
2022/01/11 07:19:56;;;;;;;106.77;58.13;;;;;;;-3.91;94.31;103108.84;10372278;28;20116;-75
2022/01/11 07:24:56;;;;;;;128.60;66.43;;;;;;;-3.84;93.68;103123.47;10373595;28;20437;-75
2022/01/11 07:29:57;;;;;;;236.90;82.10;;;;;;;-3.83;93.76;103121.09;10350014;28;20508;-74
2022/01/11 07:34:58;;;;;;;264.00;101.77;;;;;;;-3.80;94.21;103129.91;10373187;28;20068;-74
2022/01/11 07:39:58;;;;;;;218.13;98.07;;;;;;;-3.81;93.92;103141.81;10355224;28;20053;-76
2022/01/11 07:44:59;;;;;;;215.33;104.77;;;;;;;-3.86;93.69;103151.38;10393343;28;20084;-74
2022/01/11 07:49:59;;;;;;;221.30;100.23;;;;;;;-3.76;93.89;103153.63;10369059;28;20053;-75
2022/01/11 07:55:00;;;;;;;220.40;100.87;;;;;;;-3.80;94.04;103160.63;10374937;28;20029;-75
2022/01/11 08:00:05;;;;;;;221.60;98.73;;;;;;;-3.83;93.59;103169.72;10373998;28;20486;-77
2022/01/11 08:05:06;;;;;;;228.07;110.10;;;;;;;-3.75;93.66;103175.00;10342453;28;20034;-77
2022/01/11 08:10:07;;;;;;;239.57;115.17;;;;;;;-3.72;94.18;103193.34;10396639;28;20022;-76
2022/01/11 08:15:10;;;;;;;255.23;103.63;;;;;;;-3.60;93.64;103187.41;10383003;28;20046;-75
2022/01/11 08:20:11;;;;;;;229.73;102.13;;;;;;;-3.60;94.23;103189.97;10374666;28;20038;-75
2022/01/11 08:25:14;;;;;;;231.50;106.90;;;;;;;-3.46;94.08;103185.88;10355654;28;20045;-75
2022/01/11 08:30:15;;;;;;;203.07;103.13;;;;;;;-3.36;94.24;103183.00;10357913;28;20121;-76
2022/01/11 08:35:15;;;;;;;198.73;98.60;;;;;;;-3.12;93.97;103183.88;10372892;28;20022;-74
2022/01/11 08:40:16;;;;;;;130.80;65.17;;;;;;;-3.06;93.99;103188.94;10389047;28;20080;-76
2022/01/11 08:45:17;;;;;;;146.33;78.47;;;;;;;-2.95;93.91;103175.97;10351808;28;20041;-75
2022/01/11 08:50:18;;;;;;;110.53;59.20;;;;;;;-2.92;93.03;103189.91;10375510;28;20069;-74
2022/01/11 08:55:19;;;;;;;92.30;51.38;;;;;;;-2.85;93.46;103175.63;10362022;28;20030;-74
2022/01/11 09:00:22;;;;;;;91.40;46.00;;;;;;;-2.69;92.94;103172.63;10373586;28;20034;-74
2022/01/11 09:05:26;;;;;;;65.18;36.05;;;;;;;-2.68;92.26;103166.78;10369568;28;20116;-74
2022/01/11 09:10:29;;;;;;;66.53;38.30;;;;;;;-2.51;91.51;103175.16;10367906;28;20088;-75
2022/01/11 09:15:30;;;;;;;59.58;34.55;;;;;;;-2.34;92.04;103178.16;10352331;28;20026;-73
2022/01/11 09:20:30;;;;;;;52.87;30.50;;;;;;;-2.19;91.49;103179.34;10348893;28;20166;-74
2022/01/11 09:25:31;;;;;;;48.23;29.07;;;;;;;-2.25;90.92;103174.28;10376439;28;20022;-76
2022/01/11 09:30:32;;;;;;;67.53;34.42;;;;;;;-2.32;91.01;103176.72;10363081;28;20429;-77
2022/01/11 09:35:32;;;;;;;53.13;28.60;;;;;;;-2.28;90.37;103184.13;10326738;28;20037;-78
2022/01/11 09:40:33;;;;;;;57.08;29.70;;;;;;;-2.10;90.57;103185.72;10353989;28;20058;-82
2022/01/11 09:45:33;;;;;;;55.83;27.60;;;;;;;-1.95;90.84;103198.06;10334804;28;20057;-84
2022/01/11 09:50:34;;;;;;;45.15;26.55;;;;;;;-1.80;90.45;103204.34;10342660;28;20030;-85
2022/01/11 09:55:36;;;;;;;43.45;23.52;;;;;;;-1.60;89.54;103198.38;10297677;28;20026;-86
2022/01/11 10:00:44;;;;;;;;;;;;;;;-0.35;87.19;103203.53;10329885;28;20030;-85
2022/01/11 10:05:45;;;;;;;31.02;18.90;;;;;;;2.14;77.96;103200.47;10360450;28;19914;-84
2022/01/11 10:10:48;;;;;;;28.38;17.75;;;;;;;3.14;71.08;103185.38;10331456;28;20030;-85
2022/01/11 10:15:49;;;;;;;27.02;16.27;;;;;;;3.77;68.58;103180.34;10313884;28;20053;-84
2022/01/11 10:20:49;;;;;;;25.77;16.20;;;;;;;4.97;63.67;103179.59;10297821;28;20040;-81
2022/01/11 10:25:50;;;;;;;24.75;13.93;;;;;;;5.07;63.59;103186.69;10297044;28;20482;-82
2022/01/11 10:30:50;;;;;;;19.13;12.27;;;;;;;6.08;61.55;103183.31;10313045;28;20070;-82
2022/01/11 10:35:51;;;;;;;21.05;12.10;;;;;;;5.34;61.69;103187.81;10313963;28;20064;-82
2022/01/11 10:40:51;;;;;;;18.27;12.88;;;;;;;5.94;62.38;103182.75;10297823;28;20129;-83
2022/01/11 10:45:56;;;;;;;26.40;13.02;;;;;;;8.54;54.64;103176.72;10314082;28;20046;-82
2022/01/11 10:51:01;;;;;;;19.52;10.32;;;;;;;9.72;49.81;103184.69;10314133;28;20041;-83
2022/01/11 10:56:02;;;;;;;19.55;11.98;;;;;;;8.35;54.07;103196.78;10314432;28;20032;-79
2022/01/11 11:01:06;;;;;;;17.58;11.30;;;;;;;8.70;52.75;103185.22;10328715;28;20030;-79
2022/01/11 11:06:10;;;;;;;22.50;13.00;;;;;;;9.29;51.35;103194.84;10315855;28;20033;-80
2022/01/11 11:11:12;;;;;;;20.45;12.93;;;;;;;8.92;50.97;103190.72;10351328;28;20037;-78
2022/01/11 11:16:27;;;;;;;22.38;10.57;;;;;;;7.60;55.23;103200.97;10375192;28;20037;-78
2022/01/11 11:21:32;;;;;;;21.63;14.02;;;;;;;6.62;58.13;103199.16;10376732;28;20477;-78
2022/01/11 11:26:38;;;;;;;20.33;12.25;;;;;;;5.59;62.20;103203.38;10357449;28;20026;-78
2022/01/11 11:31:39;;;;;;;19.67;11.73;;;;;;;7.23;58.56;103194.75;10360412;28;20484;-78
2022/01/11 11:36:40;;;;;;;21.55;11.45;;;;;;;8.37;55.01;103184.81;10344841;28;20061;-78
2022/01/11 11:41:42;;;;;;;19.73;11.30;;;;;;;7.46;57.95;103192.72;10375391;28;20053;-78
2022/01/11 11:46:47;;;;;;;18.10;8.80;;;;;;;6.60;61.30;103186.03;10358673;28;20397;-78
2022/01/11 11:51:48;;;;;;;25.02;13.80;;;;;;;6.14;61.14;103190.03;10376160;28;20030;-78
2022/01/11 11:56:59;;;;;;;20.40;13.18;;;;;;;5.24;64.18;103179.78;10392885;28;20048;-78
2022/01/11 12:02:00;;;;;;;20.58;12.07;;;;;;;4.99;67.00;103179.75;10391629;28;20121;-78
2022/01/11 12:07:31;;;;;;;16.70;11.82;;;;;;;5.75;65.09;103182.50;10359225;28;20117;-78
2022/01/11 12:12:42;;;;;;;17.10;10.77;;;;;;;5.06;66.42;103176.13;10358625;28;20115;-78
2022/01/11 12:17:43;;;;;;;26.02;12.85;;;;;;;6.32;63.34;103182.28;10357470;28;20030;-78
2022/01/11 12:22:50;;;;;;;19.10;11.68;;;;;;;8.77;58.63;103177.16;10373713;28;20022;-78
2022/01/11 12:28:04;;;;;;;16.67;10.23;;;;;;;7.61;55.66;103166.31;10374143;28;20026;-78
2022/01/11 12:33:12;;;;;;;19.17;11.43;;;;;;;4.73;65.97;103166.56;10358800;28;20478;-78
2022/01/11 12:38:13;;;;;;;19.42;11.25;;;;;;;4.44;69.24;103161.72;10372786;28;20050;-78
2022/01/11 12:43:18;;;;;;;23.45;12.48;;;;;;;5.50;68.58;103153.97;10366547;28;20044;-78
2022/01/11 12:48:50;;;;;;;16.38;10.45;;;;;;;6.52;62.77;103155.72;10374343;28;20033;-78
2022/01/11 12:54:12;;;;;;;16.75;11.05;;;;;;;5.48;64.83;103152.88;10362234;28;20084;-78
2022/01/11 12:59:13;;;;;;;16.02;10.75;;;;;;;4.59;69.75;103160.78;10372171;28;20111;-78
2022/01/11 13:04:14;;;;;;;17.55;11.88;;;;;;;3.81;73.26;103157.50;10374868;28;20062;-78
2022/01/11 13:09:14;;;;;;;21.27;12.32;;;;;;;3.88;74.35;103160.78;10372805;28;20593;-78
2022/01/11 13:14:29;;;;;;;22.63;11.65;;;;;;;3.86;74.22;103152.88;10371891;28;20057;-79
2022/01/11 13:19:34;;;;;;;19.90;12.02;;;;;;;4.74;71.08;103142.44;10372223;28;20041;-79
2022/01/11 13:24:38;;;;;;;20.80;11.68;;;;;;;4.72;72.21;103149.16;10371856;28;20466;-79
2022/01/11 13:29:39;;;;;;;22.75;13.30;;;;;;;3.86;75.22;103149.34;10371168;28;20044;-78
2022/01/11 13:34:39;;;;;;;23.20;13.63;;;;;;;3.54;77.01;103157.94;10371120;28;20049;-79
2022/01/11 13:39:41;;;;;;;21.05;12.52;;;;;;;3.28;76.87;103155.91;10370492;28;20050;-79
2022/01/11 13:44:43;;;;;;;26.90;15.32;;;;;;;3.23;77.93;103160.53;10373002;28;20397;-78
2022/01/11 13:49:46;;;;;;;36.55;14.73;;;;;;;3.20;78.33;103149.84;10362690;28;20038;-78
2022/01/11 13:54:52;;;;;;;25.20;12.95;;;;;;;3.22;77.72;103150.94;10358292;28;20049;-78
2022/01/11 14:00:00;;;;;;;29.58;14.43;;;;;;;3.15;79.89;103156.16;10373324;28;20059;-76
2022/01/11 14:05:04;;;;;;;25.88;13.73;;;;;;;3.15;79.85;103156.16;10371411;28;20046;-78
2022/01/11 14:10:06;;;;;;;22.38;12.75;;;;;;;3.29;79.56;103141.28;10386700;28;20060;-78
2022/01/11 14:15:07;;;;;;;16.35;11.50;;;;;;;3.10;79.68;103157.28;10365991;28;20041;-78
2022/01/11 14:20:21;;;;;;;22.58;13.52;;;;;;;2.91;79.02;103147.41;10332408;28;20093;-76
2022/01/11 14:25:27;;;;;;;22.55;13.38;;;;;;;2.67;78.62;103149.75;10366574;28;20037;-77
2022/01/11 14:30:46;;;;;;;26.52;14.80;;;;;;;2.38;80.43;103150.78;10367805;28;20440;-77
2022/01/11 14:36:00;;;;;;;23.88;16.33;;;;;;;2.15;81.22;103148.06;10384836;28;20588;-78
2022/01/11 14:41:01;;;;;;;23.75;14.35;;;;;;;1.91;81.69;103162.50;10369949;28;20076;-76
2022/01/11 14:46:05;;;;;;;25.02;16.70;;;;;;;1.57;82.84;103161.00;10376792;28;20034;-77
2022/01/11 14:51:10;;;;;;;26.15;15.75;;;;;;;1.07;83.94;103172.19;10380274;28;20112;-78
2022/01/11 14:56:19;;;;;;;26.42;14.23;;;;;;;0.56;84.78;103183.22;10390561;28;20489;-78
2022/01/11 15:01:21;;;;;;;26.70;16.45;;;;;;;0.20;85.83;103177.84;10382075;28;20041;-78
2022/01/11 15:06:55;;;;;;;31.30;16.10;;;;;;;-0.08;86.85;103181.16;10389211;28;20477;-79
2022/01/11 15:11:59;;;;;;;31.00;19.02;;;;;;;-0.39;88.01;103190.09;10345142;28;20046;-80
2022/01/11 15:17:01;;;;;;;30.35;17.25;;;;;;;-0.60;88.57;103204.59;10337976;28;20026;-80
2022/01/11 15:22:02;;;;;;;29.35;20.13;;;;;;;-0.86;88.79;103196.97;10353050;28;20425;-80
2022/01/11 15:27:03;;;;;;;31.03;20.63;;;;;;;-0.94;89.69;103198.50;10337690;28;20035;-80
2022/01/11 15:32:04;;;;;;;36.10;20.08;;;;;;;-1.02;90.06;103193.09;10335472;28;20121;-80
2022/01/11 15:37:04;;;;;;;31.73;21.33;;;;;;;-1.20;89.60;103200.22;10364628;28;20094;-80
2022/01/11 15:42:05;;;;;;;28.70;20.67;;;;;;;-1.24;90.19;103195.41;10375433;28;20072;-80
2022/01/11 15:47:09;;;;;;;37.28;22.90;;;;;;;-1.48;90.33;103191.41;10345048;28;20363;-79
2022/01/11 15:52:11;;;;;;;39.17;21.45;;;;;;;-1.45;90.52;103194.38;10356303;28;20525;-80
2022/01/11 15:57:13;;;;;;;37.10;20.90;;;;;;;-1.59;90.44;103200.25;10355154;28;20054;-80
2022/01/11 16:02:14;;;;;;;38.78;24.30;;;;;;;-1.65;90.90;103210.63;10378004;28;20026;-80
2022/01/11 16:07:14;;;;;;;36.13;24.20;;;;;;;-1.83;90.92;103214.19;10390354;28;20445;-79
2022/01/11 16:12:15;;;;;;;44.63;25.02;;;;;;;-1.92;91.49;103211.31;10392246;28;20084;-80
2022/01/11 16:17:15;;;;;;;41.38;24.60;;;;;;;-2.02;91.87;103217.53;10363628;28;20034;-78
2022/01/11 16:22:16;;;;;;;38.25;25.13;;;;;;;-2.05;92.03;103215.50;10369693;28;20079;-79
2022/01/11 16:27:17;;;;;;;46.10;27.10;;;;;;;-2.01;92.14;103211.69;10397238;28;20018;-78
2022/01/11 16:32:17;;;;;;;40.58;23.33;;;;;;;-2.08;92.42;103203.16;10374715;28;20022;-78
2022/01/11 16:37:18;;;;;;;46.38;26.77;;;;;;;-2.15;92.65;103226.13;10371311;28;20116;-77
2022/01/11 16:47:38;;;;;;;45.75;26.80;;;;;;;-2.14;92.42;103222.84;10401910;28;20037;-78
2022/01/11 16:52:38;;;;;;;54.55;32.88;;;;;;;-2.11;92.84;103232.63;10343929;28;20103;-79
2022/01/11 16:57:39;;;;;;;51.17;28.55;;;;;;;-2.06;93.53;103231.63;10373600;28;20026;-79
2022/01/11 17:02:40;;;;;;;36.75;23.60;;;;;;;-2.07;93.40;103235.81;10356316;28;20397;-77
2022/01/11 17:07:40;;;;;;;55.67;31.67;;;;;;;-2.17;93.47;103231.78;10372866;28;20030;-78
2022/01/11 17:12:42;;;;;;;61.60;37.57;;;;;;;-2.28;93.29;103253.41;10378413;28;20041;-81
2022/01/11 17:17:42;;;;;;;52.33;34.50;;;;;;;-2.29;93.34;103246.41;10383353;28;20394;-79
2022/01/11 17:22:43;;;;;;;53.80;32.10;;;;;;;-2.38;92.83;103254.69;10339971;28;20072;-81
2022/01/11 17:27:44;;;;;;;58.15;37.33;;;;;;;-2.42;93.72;103265.25;10344372;28;20401;-78
2022/01/11 17:32:44;;;;;;;63.90;34.38;;;;;;;-2.54;93.21;103273.81;10371751;28;20567;-76
2022/01/11 17:37:45;;;;;;;55.70;31.30;;;;;;;-2.41;93.62;103266.19;10353461;28;20132;-77
2022/01/11 17:42:50;;;;;;;60.57;33.07;;;;;;;-2.42;93.69;103274.59;10349107;28;20034;-78
2022/01/11 17:47:51;;;;;;;60.42;39.42;;;;;;;-2.37;93.27;103271.03;10369552;28;20184;-78
2022/01/11 17:52:52;;;;;;;68.77;38.70;;;;;;;-2.37;93.80;103273.59;10339806;28;20582;-79
2022/01/11 17:57:52;;;;;;;55.83;32.10;;;;;;;-2.22;93.64;103279.91;10383207;28;20092;-79
2022/01/11 18:02:53;;;;;;;72.87;40.37;;;;;;;-2.16;93.60;103283.31;10355764;28;20065;-78
2022/01/11 18:07:53;;;;;;;61.38;34.47;;;;;;;-2.09;94.13;103292.78;10364138;28;20038;-78
2022/01/11 18:12:57;;;;;;;56.60;36.15;;;;;;;-2.09;93.80;103303.06;10377730;28;20469;-78
2022/01/11 18:17:57;;;;;;;57.28;34.80;;;;;;;-2.10;94.14;103308.91;10382712;28;20026;-78
2022/01/11 18:22:58;;;;;;;51.13;31.52;;;;;;;-2.08;93.39;103310.94;10380340;28;20064;-78
2022/01/11 18:27:58;;;;;;;61.38;32.13;;;;;;;-1.92;94.02;103305.34;10368303;28;20046;-78
2022/01/11 18:32:59;;;;;;;61.58;33.85;;;;;;;-1.89;94.04;103318.63;10352469;28;20030;-77
2022/01/11 18:37:59;;;;;;;50.15;35.05;;;;;;;-1.82;93.90;103312.69;10347008;28;20042;-77
2022/01/11 18:43:00;;;;;;;59.45;37.78;;;;;;;-1.85;93.85;103294.31;10367265;28;20406;-80
2022/01/11 18:48:01;;;;;;;61.22;37.53;;;;;;;-1.78;94.04;103292.75;10337315;28;20042;-76
2022/01/11 18:53:01;;;;;;;66.05;36.40;;;;;;;-1.81;93.81;103294.91;10381928;28;20041;-78
2022/01/11 18:58:02;;;;;;;61.50;34.88;;;;;;;-1.76;93.75;103285.28;10372128;28;20030;-79
2022/01/11 19:03:03;;;;;;;72.10;37.92;;;;;;;-1.81;93.80;103286.31;10367741;28;20030;-79
2022/01/11 19:08:04;;;;;;;66.03;40.05;;;;;;;-1.94;93.71;103309.34;10368987;28;20026;-79
2022/01/11 19:13:05;;;;;;;62.10;35.95;;;;;;;-1.92;93.77;103307.91;10367680;28;20631;-79
2022/01/11 19:18:05;;;;;;;72.88;38.97;;;;;;;-2.00;94.31;103323.91;10365692;28;20492;-80
2022/01/11 19:23:06;;;;;;;61.00;34.08;;;;;;;-2.05;94.51;103324.91;10367882;28;20121;-80
2022/01/11 19:28:06;;;;;;;65.45;38.08;;;;;;;-1.89;94.37;103339.16;10364950;28;20558;-80
2022/01/11 19:33:06;;;;;;;64.30;38.72;;;;;;;-1.92;94.29;103333.59;10355687;28;20065;-79
2022/01/11 19:38:07;;;;;;;60.03;37.00;;;;;;;-1.81;94.07;103335.09;10372144;28;20076;-79
2022/01/11 19:43:08;;;;;;;72.90;39.50;;;;;;;-1.83;93.96;103346.78;10339403;28;20454;-79
2022/01/11 19:48:08;;;;;;;67.47;37.45;;;;;;;-1.81;94.17;103333.44;10368817;28;20525;-79
2022/01/11 19:53:10;;;;;;;74.75;40.72;;;;;;;-1.86;94.41;103318.13;10374251;28;20069;-79
2022/01/11 19:58:11;;;;;;;69.10;41.78;;;;;;;-1.95;94.59;103331.56;10373816;28;20153;-79
2022/01/11 20:03:11;;;;;;;69.85;42.35;;;;;;;-2.01;94.47;103328.13;10373519;28;20061;-79
2022/01/11 20:08:13;;;;;;;67.07;42.20;;;;;;;-2.19;93.91;103334.19;10374649;28;20053;-79
2022/01/11 20:13:16;;;;;;;59.75;34.95;;;;;;;-2.20;93.99;103350.31;10374852;28;20034;-79
2022/01/11 20:18:17;;;;;;;72.95;38.78;;;;;;;-2.25;93.86;103347.13;10329148;28;20034;-79
2022/01/11 20:28:37;;;;;;;70.45;38.40;;;;;;;-2.34;93.81;103337.19;10344510;28;20034;-79
2022/01/11 20:33:37;;;;;;;59.05;40.22;;;;;;;-2.46;93.61;103345.03;10360806;28;20030;-79
2022/01/11 20:38:39;;;;;;;72.10;39.15;;;;;;;-2.58;93.79;103353.56;10343473;28;20052;-80
2022/01/11 20:43:40;;;;;;;62.03;36.28;;;;;;;-2.70;93.51;103370.75;10347005;28;20046;-79
2022/01/11 20:48:41;;;;;;;60.77;36.97;;;;;;;-2.71;94.48;103364.66;10334065;28;20033;-81
2022/01/11 20:53:41;;;;;;;63.70;41.42;;;;;;;-2.71;94.01;103368.91;10352234;28;20084;-82
2022/01/11 20:58:45;;;;;;;69.63;38.95;;;;;;;-2.84;94.46;103368.78;10336277;28;20125;-82
2022/01/11 21:03:47;;;;;;;68.97;43.53;;;;;;;-2.88;94.09;103382.81;10350253;28;20385;-81
2022/01/11 21:08:48;;;;;;;72.15;38.58;;;;;;;-2.95;94.24;103388.69;10331044;28;20042;-81
2022/01/11 21:13:48;;;;;;;66.65;40.83;;;;;;;-2.94;94.03;103387.06;10370402;28;20095;-80
2022/01/11 21:24:09;;;;;;;61.90;36.17;;;;;;;-2.87;94.44;103374.41;10358914;28;20466;-78
2022/01/11 21:29:09;;;;;;;64.68;37.83;;;;;;;-2.82;94.06;103377.59;10368974;28;20040;-79
2022/01/11 21:34:10;;;;;;;66.10;36.75;;;;;;;-2.87;94.26;103370.91;10359616;28;20390;-78
2022/01/11 21:39:13;;;;;;;61.07;37.43;;;;;;;-2.77;94.57;103366.38;10366963;28;20101;-78
2022/01/11 21:44:21;;;;;;;65.82;36.75;;;;;;;-2.77;94.80;103374.06;10373208;28;20038;-78
2022/01/11 21:49:24;;;;;;;69.38;38.33;;;;;;;-2.89;94.11;103386.09;10353967;28;20505;-78
2022/01/11 21:54:24;;;;;;;59.70;36.22;;;;;;;-2.92;94.32;103398.47;10370967;28;20038;-78
2022/01/11 21:59:25;;;;;;;67.23;36.40;;;;;;;-3.02;94.52;103395.28;10370188;28;20077;-78
2022/01/11 22:04:25;;;;;;;56.07;34.20;;;;;;;-3.02;94.29;103398.75;10339512;28;20367;-78
2022/01/11 22:09:26;;;;;;;58.20;32.08;;;;;;;-2.94;94.20;103389.63;10371171;28;20030;-78
2022/01/11 22:14:32;;;;;;;63.75;38.13;;;;;;;-2.91;94.80;103401.94;10354140;28;20493;-78
2022/01/11 22:19:32;;;;;;;76.38;41.15;;;;;;;-2.90;94.30;103399.59;10371519;28;20425;-78
2022/01/11 22:24:36;;;;;;;54.57;33.73;;;;;;;-2.90;94.66;103393.53;10370942;28;20061;-78
2022/01/11 22:29:36;;;;;;;67.88;39.72;;;;;;;-2.86;94.73;103389.09;10329318;28;20022;-78
2022/01/11 22:34:37;;;;;;;61.80;42.70;;;;;;;-2.82;94.31;103405.81;10329664;28;20069;-78
2022/01/11 22:39:41;;;;;;;52.47;29.10;;;;;;;-2.75;94.50;103394.81;10355333;28;20456;-78
2022/01/11 22:44:42;;;;;;;76.10;42.88;;;;;;;-2.88;94.38;103402.38;10370685;28;20042;-78
2022/01/11 22:49:43;;;;;;;77.88;40.83;;;;;;;-2.85;94.39;103395.13;10353106;28;20584;-78
2022/01/11 22:54:44;;;;;;;76.73;42.37;;;;;;;-2.88;94.51;103402.38;10371711;28;20152;-78
2022/01/11 22:59:45;;;;;;;;;;;;;;;-2.84;94.79;103421.00;10369886;28;20478;-78